Time;durP1;ratioP1;P1;durP2;ratioP2;P2;SDS_P1;SDS_P2;PMS_P1;PMS_P2;Temp;Humidity;BMP_temperature;BMP_pressure;BME280_temperature;BME280_humidity;BME280_pressure;Samples;Min_cycle;Max_cycle;Signal;HPM_P1;HPM_P2
2022/09/09 00:01:20;;;;;;;8.25;2.47;;;;;;;;;;10428642;28;20110;-60
2022/09/09 00:06:20;;;;;;;7.28;2.60;;;;;;;;;;10414898;28;20040;-53
2022/09/09 00:11:56;;;;;;;8.93;2.17;;;;;;;;;;10430838;28;20043;-55
2022/09/09 00:17:02;;;;;;;6.25;2.75;;;;;;;;;;10419439;28;20124;-53
2022/09/09 00:22:18;;;;;;;3.83;2.72;;;;;;;;;;10428035;28;20034;-53
2022/09/09 00:27:29;;;;;;;7.28;3.20;;;;;;;;;;10431648;28;20037;-54
2022/09/09 00:32:32;;;;;;;5.47;2.88;;;;;;;;;;10422223;28;20060;-54
2022/09/09 00:37:34;;;;;;;6.40;2.65;;;;;;;;;;10434634;28;20117;-56
2022/09/09 00:42:41;;;;;;;8.65;3.15;;;;;;;;;;10449100;28;20590;-59
2022/09/09 00:47:47;;;;;;;7.15;2.92;;;;;;;;;;10453727;28;20024;-53
2022/09/09 00:53:07;;;;;;;6.97;2.88;;;;;;;;;;10426475;28;20033;-52
2022/09/09 00:58:09;;;;;;;8.10;3.25;;;;;;;;;;10411920;28;20405;-52
2022/09/09 01:03:31;;;;;;;6.95;2.85;;;;;;;;;;10418786;28;20068;-54
2022/09/09 01:08:50;;;;;;;7.68;3.28;;;;;;;;;;10448362;28;20069;-59
2022/09/09 01:14:01;;;;;;;11.15;3.05;;;;;;;;;;10415147;28;20029;-55
2022/09/09 01:19:03;;;;;;;9.85;3.20;;;;;;;;;;10425629;28;20465;-57
2022/09/09 01:24:08;;;;;;;7.93;2.95;;;;;;;;;;10420694;28;20098;-59
2022/09/09 01:29:12;;;;;;;8.95;3.42;;;;;;;;;;10432507;28;20033;-58
2022/09/09 01:34:14;;;;;;;8.43;3.35;;;;;;;;;;10437960;28;20056;-66
2022/09/09 01:39:15;;;;;;;7.18;3.30;;;;;;;;;;10433929;28;20033;-66
2022/09/09 01:44:15;;;;;;;8.68;2.80;;;;;;;;;;10444072;28;20045;-66
2022/09/09 01:49:17;;;;;;;6.68;3.20;;;;;;;;;;10427057;28;20029;-67
2022/09/09 01:54:19;;;;;;;10.18;3.35;;;;;;;;;;10422440;28;20029;-64
2022/09/09 01:59:38;;;;;;;13.23;3.10;;;;;;;;;;10421089;28;20471;-66
2022/09/09 02:04:47;;;;;;;6.32;2.80;;;;;;;;;;10419553;28;20053;-51
2022/09/09 02:10:02;;;;;;;6.55;2.30;;;;;;;;;;10410301;28;20072;-50
2022/09/09 02:15:09;;;;;;;9.05;2.47;;;;;;;;;;10407153;28;20087;-51
2022/09/09 02:20:14;;;;;;;14.55;2.50;;;;;;;;;;10396911;28;20053;-50
2022/09/09 02:25:17;;;;;;;7.18;2.90;;;;;;;;;;10394668;28;20060;-50
2022/09/09 02:30:20;;;;;;;4.30;2.13;;;;;;;;;;10406080;28;20370;-50
2022/09/09 02:35:24;;;;;;;6.72;2.35;;;;;;;;;;10408312;28;20120;-51
2022/09/09 02:40:24;;;;;;;11.80;3.05;;;;;;;;;;10408848;28;20439;-52
2022/09/09 02:45:30;;;;;;;9.52;2.42;;;;;;;;;;10407484;28;20048;-49
2022/09/09 02:50:38;;;;;;;4.07;1.98;;;;;;;;;;10408810;28;20032;-52
2022/09/09 02:55:45;;;;;;;10.80;2.65;;;;;;;;;;10398028;28;20041;-57
2022/09/09 03:00:48;;;;;;;2.97;2.17;;;;;;;;;;10394319;28;20087;-55
2022/09/09 03:05:49;;;;;;;3.30;1.65;;;;;;;;;;10415426;22;20056;-51
2022/09/09 03:10:49;;;;;;;8.90;2.17;;;;;;;;;;10408039;28;20028;-49
2022/09/09 03:15:50;;;;;;;5.88;2.20;;;;;;;;;;10371003;28;20030;-49
2022/09/09 03:20:50;;;;;;;8.70;2.40;;;;;;;;;;10366785;28;20037;-49
2022/09/09 03:25:51;;;;;;;6.07;2.05;;;;;;;;;;10366582;28;20483;-52
2022/09/09 03:30:57;;;;;;;4.30;2.20;;;;;;;;;;10352556;28;20048;-51
2022/09/09 03:35:57;;;;;;;9.45;2.30;;;;;;;;;;10366388;28;20034;-52
2022/09/09 03:40:58;;;;;;;9.03;2.70;;;;;;;;;;10366519;28;20483;-49
2022/09/09 03:45:58;;;;;;;6.10;2.03;;;;;;;;;;10358311;28;20049;-54
2022/09/09 03:51:01;;;;;;;6.23;2.47;;;;;;;;;;10360051;28;20121;-55
2022/09/09 03:56:02;;;;;;;11.27;2.10;;;;;;;;;;10365605;28;20052;-49
2022/09/09 04:01:10;;;;;;;6.70;2.25;;;;;;;;;;10338467;28;20454;-51
2022/09/09 04:06:13;;;;;;;8.43;2.00;;;;;;;;;;10365486;28;20053;-50
2022/09/09 04:11:13;;;;;;;7.70;2.13;;;;;;;;;;10362163;28;20033;-52
2022/09/09 04:16:14;;;;;;;5.45;2.05;;;;;;;;;;10360835;28;20052;-52
2022/09/09 04:21:16;;;;;;;6.72;2.10;;;;;;;;;;10365936;28;20064;-53
2022/09/09 04:26:16;;;;;;;5.03;2.35;;;;;;;;;;10365622;28;20376;-50
2022/09/09 04:31:19;;;;;;;5.25;1.88;;;;;;;;;;10370609;28;20036;-50
2022/09/09 04:36:20;;;;;;;7.00;2.30;;;;;;;;;;10360561;28;20034;-49
2022/09/09 04:41:20;;;;;;;9.75;2.25;;;;;;;;;;10361159;28;20488;-52
2022/09/09 04:46:22;;;;;;;20.35;2.35;;;;;;;;;;10369274;28;20390;-50
2022/09/09 04:51:23;;;;;;;12.15;2.65;;;;;;;;;;10371906;28;20029;-53
2022/09/09 04:56:26;;;;;;;7.60;2.30;;;;;;;;;;10369130;28;20584;-45
2022/09/09 05:01:26;;;;;;;7.20;2.80;;;;;;;;;;10367003;28;20065;-44
2022/09/09 05:06:27;;;;;;;9.40;2.57;;;;;;;;;;10368527;28;20528;-45
2022/09/09 05:11:30;;;;;;;5.67;2.30;;;;;;;;;;10370597;28;20029;-47
2022/09/09 05:16:31;;;;;;;11.15;2.60;;;;;;;;;;10359002;28;20103;-49
2022/09/09 05:21:31;;;;;;;12.85;2.60;;;;;;;;;;10373787;28;20145;-53
2022/09/09 05:26:32;;;;;;;16.63;2.77;;;;;;;;;;10363223;28;20041;-47
2022/09/09 05:31:32;;;;;;;12.18;2.80;;;;;;;;;;10365917;28;20788;-47
2022/09/09 05:36:33;;;;;;;13.73;2.45;;;;;;;;;;10369798;28;20164;-47
2022/09/09 05:41:34;;;;;;;8.93;2.70;;;;;;;;;;10365705;28;20045;-47
2022/09/09 05:46:35;;;;;;;10.40;2.53;;;;;;;;;;10368691;28;20038;-51
2022/09/09 05:51:35;;;;;;;5.65;2.17;;;;;;;;;;10368920;28;20380;-50
2022/09/09 05:56:35;;;;;;;7.57;2.30;;;;;;;;;;10366778;28;20113;-56
2022/09/09 06:01:40;;;;;;;5.07;2.50;;;;;;;;;;10366282;28;20030;-48
2022/09/09 06:06:41;;;;;;;7.25;2.45;;;;;;;;;;10361882;28;20141;-46
2022/09/09 06:11:42;;;;;;;7.45;2.20;;;;;;;;;;10332957;28;20536;-47
2022/09/09 06:16:43;;;;;;;12.13;2.42;;;;;;;;;;10358183;28;20033;-47
2022/09/09 06:21:44;;;;;;;9.25;2.00;;;;;;;;;;10352229;28;20038;-47
2022/09/09 06:26:45;;;;;;;12.43;2.73;;;;;;;;;;10344897;28;20029;-48
2022/09/09 06:31:45;;;;;;;5.28;2.00;;;;;;;;;;10363629;28;20482;-47
2022/09/09 06:36:46;;;;;;;10.20;2.77;;;;;;;;;;10366272;28;20378;-55
2022/09/09 06:41:47;;;;;;;4.65;2.17;;;;;;;;;;10367480;28;20033;-47
2022/09/09 06:46:47;;;;;;;6.15;2.35;;;;;;;;;;10366985;28;20026;-48
2022/09/09 06:51:49;;;;;;;8.60;2.20;;;;;;;;;;10366778;28;20048;-56
2022/09/09 06:56:49;;;;;;;4.85;2.30;;;;;;;;;;10366899;28;20022;-47
2022/09/09 07:01:51;;;;;;;7.63;2.33;;;;;;;;;;10366888;28;20032;-48
2022/09/09 07:06:52;;;;;;;5.32;2.35;;;;;;;;;;10361788;28;20544;-47
2022/09/09 07:11:52;;;;;;;5.80;2.45;;;;;;;;;;10359800;28;20027;-47
2022/09/09 07:16:53;;;;;;;5.55;2.28;;;;;;;;;;10343303;28;20042;-48
2022/09/09 07:21:53;;;;;;;6.10;2.00;;;;;;;;;;10366899;28;20030;-48
2022/09/09 07:26:54;;;;;;;10.27;2.40;;;;;;;;;;10348524;28;20026;-55
2022/09/09 07:31:54;;;;;;;6.73;2.43;;;;;;;;;;10365777;28;20041;-57
2022/09/09 07:36:56;;;;;;;4.70;2.05;;;;;;;;;;10335835;28;20045;-61
2022/09/09 07:41:57;;;;;;;6.85;2.72;;;;;;;;;;10352923;28;20485;-60
2022/09/09 07:46:58;;;;;;;15.02;2.33;;;;;;;;;;10355066;28;20032;-47
2022/09/09 07:51:58;;;;;;;5.10;2.23;;;;;;;;;;10364709;28;20034;-47
2022/09/09 07:56:59;;;;;;;5.68;2.42;;;;;;;;;;10345516;28;20041;-61
2022/09/09 08:01:59;;;;;;;6.63;2.40;;;;;;;;;;10367425;28;20375;-48
2022/09/09 08:07:01;;;;;;;3.60;2.10;;;;;;;;;;10373271;28;20053;-49
2022/09/09 08:12:02;;;;;;;3.85;2.25;;;;;;;;;;10373260;28;20432;-49
2022/09/09 08:17:02;;;;;;;6.03;2.22;;;;;;;;;;10373059;28;20055;-53
2022/09/09 08:22:03;;;;;;;6.57;2.38;;;;;;;;;;10372654;28;20504;-54
2022/09/09 08:27:03;;;;;;;4.65;2.05;;;;;;;;;;10371458;28;20049;-47
2022/09/09 08:32:04;;;;;;;13.77;2.63;;;;;;;;;;10372348;28;20032;-48
2022/09/09 08:37:04;;;;;;;6.03;2.35;;;;;;;;;;10370475;28;20033;-47
2022/09/09 08:42:48;;;;;;;5.50;2.23;;;;;;;;;;10367294;28;20169;-49
2022/09/09 08:48:19;;;;;;;5.75;2.50;;;;;;;;;;10366846;28;20034;-49
2022/09/09 08:53:24;;;;;;;4.63;2.40;;;;;;;;;;10371692;28;20036;-46
2022/09/09 08:58:31;;;;;;;5.50;2.47;;;;;;;;;;10370217;28;20522;-50
2022/09/09 09:03:48;;;;;;;3.35;1.95;;;;;;;;;;10359932;28;20078;-48
2022/09/09 09:09:02;;;;;;;4.23;2.23;;;;;;;;;;10365516;28;20050;-46
2022/09/09 09:14:25;;;;;;;5.32;2.40;;;;;;;;;;10354338;28;20018;-47
2022/09/09 09:19:28;;;;;;;7.18;2.20;;;;;;;;;;10358008;28;20034;-48
2022/09/09 09:24:32;;;;;;;5.43;2.28;;;;;;;;;;10369559;28;20030;-47
2022/09/09 09:29:34;;;;;;;5.47;1.98;;;;;;;;;;10370027;28;20500;-48
2022/09/09 09:34:35;;;;;;;4.82;1.77;;;;;;;;;;10370037;28;20477;-48
2022/09/09 09:39:38;;;;;;;5.57;2.10;;;;;;;;;;10359115;28;20034;-49
2022/09/09 09:44:38;;;;;;;3.72;2.22;;;;;;;;;;10356627;28;20073;-47
2022/09/09 09:49:39;;;;;;;4.60;2.30;;;;;;;;;;10352308;28;20026;-53
2022/09/09 09:54:41;;;;;;;6.38;2.00;;;;;;;;;;10366486;28;20490;-46
2022/09/09 09:59:42;;;;;;;3.83;1.98;;;;;;;;;;10360883;28;20086;-47
2022/09/09 10:04:45;;;;;;;8.48;2.30;;;;;;;;;;10363369;28;20444;-47
2022/09/09 10:09:50;;;;;;;11.93;2.25;;;;;;;;;;10362087;28;20096;-48
2022/09/09 10:14:59;;;;;;;5.95;2.03;;;;;;;;;;10368915;28;20635;-47
2022/09/09 10:20:32;;;;;;;7.78;2.58;;;;;;;;;;10358607;28;20101;-51
2022/09/09 10:26:11;;;;;;;4.15;1.92;;;;;;;;;;10353475;28;20481;-47
2022/09/09 10:31:29;;;;;;;4.47;1.63;;;;;;;;;;10367188;28;20048;-47
2022/09/09 10:36:30;;;;;;;2.42;1.63;;;;;;;;;;10357932;28;20033;-47
2022/09/09 10:41:42;;;;;;;2.43;1.60;;;;;;;;;;10367986;28;20029;-47
2022/09/09 10:47:19;;;;;;;3.92;2.00;;;;;;;;;;10340547;28;20030;-49
2022/09/09 10:52:38;;;;;;;7.97;1.83;;;;;;;;;;10345131;28;20027;-47
2022/09/09 10:57:59;;;;;;;4.72;2.22;;;;;;;;;;10360023;28;20470;-48
2022/09/09 11:03:04;;;;;;;6.35;1.50;;;;;;;;;;10345613;28;20042;-47
2022/09/09 11:08:11;;;;;;;2.10;1.60;;;;;;;;;;10354790;28;20064;-47
2022/09/09 11:13:20;;;;;;;2.75;1.67;;;;;;;;;;10360833;28;20035;-48
2022/09/09 11:18:23;;;;;;;2.60;1.50;;;;;;;;;;10364486;28;20038;-46
2022/09/09 11:23:48;;;;;;;7.38;1.90;;;;;;;;;;10353176;28;20037;-47
2022/09/09 11:29:19;;;;;;;9.13;1.90;;;;;;;;;;10343127;28;20045;-47
2022/09/09 11:34:50;;;;;;;2.92;1.40;;;;;;;;;;10349450;28;20034;-48
2022/09/09 11:39:56;;;;;;;2.90;1.58;;;;;;;;;;10349354;28;20041;-48
2022/09/09 11:44:57;;;;;;;3.38;2.05;;;;;;;;;;10374266;28;20508;-49
2022/09/09 11:50:34;;;;;;;4.03;2.13;;;;;;;;;;10373865;28;20112;-48
2022/09/09 11:55:36;;;;;;;7.10;2.00;;;;;;;;;;10362900;28;20038;-48
2022/09/09 12:00:44;;;;;;;6.25;1.80;;;;;;;;;;10373764;28;20033;-47
2022/09/09 12:05:45;;;;;;;4.57;1.70;;;;;;;;;;10368484;28;20038;-48
2022/09/09 12:10:57;;;;;;;2.38;1.60;;;;;;;;;;10374039;28;20040;-49
2022/09/09 12:16:05;;;;;;;6.30;1.88;;;;;;;;;;10356985;28;20045;-47
2022/09/09 12:21:23;;;;;;;5.05;1.80;;;;;;;;;;10373364;28;20045;-47
2022/09/09 12:26:33;;;;;;;5.65;2.28;;;;;;;;;;10362960;28;20045;-51
2022/09/09 12:31:36;;;;;;;3.30;1.60;;;;;;;;;;10339919;28;20023;-49
2022/09/09 12:36:39;;;;;;;6.13;2.15;;;;;;;;;;10365168;28;20065;-48
2022/09/09 12:41:40;;;;;;;5.53;1.85;;;;;;;;;;10368138;28;20026;-50
2022/09/09 12:46:46;;;;;;;6.00;1.95;;;;;;;;;;10371166;28;20018;-49
2022/09/09 12:51:46;;;;;;;11.45;2.28;;;;;;;;;;10366048;28;20037;-48
2022/09/09 12:56:48;;;;;;;7.83;2.47;;;;;;;;;;10370484;28;20465;-48
2022/09/09 13:01:56;;;;;;;6.43;2.17;;;;;;;;;;10359809;28;20472;-48
2022/09/09 13:07:11;;;;;;;8.25;1.88;;;;;;;;;;10349937;28;20130;-48
2022/09/09 13:12:16;;;;;;;11.35;2.72;;;;;;;;;;10369589;28;20038;-51
2022/09/09 13:17:25;;;;;;;3.63;1.90;;;;;;;;;;10355200;28;20109;-49
2022/09/09 13:22:37;;;;;;;9.65;1.90;;;;;;;;;;10344129;28;20018;-48
2022/09/09 13:27:42;;;;;;;6.60;1.83;;;;;;;;;;10367419;28;20052;-48
2022/09/09 13:32:42;;;;;;;7.65;1.77;;;;;;;;;;10349561;28;20048;-48
2022/09/09 13:37:43;;;;;;;3.87;1.40;;;;;;;;;;10368630;28;20037;-49
2022/09/09 13:42:44;;;;;;;9.60;1.90;;;;;;;;;;10369388;28;20044;-48
2022/09/09 13:47:46;;;;;;;4.20;1.85;;;;;;;;;;10341126;28;20053;-50
2022/09/09 13:52:52;;;;;;;4.25;1.67;;;;;;;;;;10361220;28;20049;-55
2022/09/09 13:58:05;;;;;;;2.88;1.20;;;;;;;;;;10362250;28;20088;-47
2022/09/09 14:03:07;;;;;;;1.67;1.17;;;;;;;;;;10362519;28;20041;-48
2022/09/09 14:08:16;;;;;;;3.88;1.30;;;;;;;;;;10350279;28;20049;-47
2022/09/09 14:13:16;;;;;;;5.97;1.35;;;;;;;;;;10359847;28;20034;-47
2022/09/09 14:18:18;;;;;;;1.77;1.25;;;;;;;;;;10366781;28;20046;-47
2022/09/09 14:23:18;;;;;;;3.75;1.20;;;;;;;;;;10365859;28;20034;-50
2022/09/09 14:28:19;;;;;;;3.90;1.47;;;;;;;;;;10360971;28;20040;-49
2022/09/09 14:33:19;;;;;;;1.90;1.17;;;;;;;;;;10356396;28;20429;-52
2022/09/09 14:38:20;;;;;;;4.78;1.15;;;;;;;;;;10362036;28;20595;-47
2022/09/09 14:43:20;;;;;;;3.27;1.20;;;;;;;;;;10365360;28;20117;-48
2022/09/09 14:48:20;;;;;;;7.30;0.90;;;;;;;;;;10335188;28;20470;-48
2022/09/09 14:53:21;;;;;;;2.70;1.47;;;;;;;;;;10354823;28;20545;-47
2022/09/09 14:58:21;;;;;;;14.70;1.55;;;;;;;;;;10337908;28;20034;-47
2022/09/09 15:03:22;;;;;;;3.30;1.10;;;;;;;;;;10342578;28;20040;-47
2022/09/09 15:08:23;;;;;;;5.72;1.40;;;;;;;;;;10362363;28;20215;-48
2022/09/09 15:13:24;;;;;;;2.50;1.20;;;;;;;;;;10332913;28;20192;-48
2022/09/09 15:18:25;;;;;;;3.40;1.33;;;;;;;;;;10346857;28;20061;-48
2022/09/09 15:23:25;;;;;;;2.47;1.20;;;;;;;;;;10363069;28;20343;-50
2022/09/09 15:28:26;;;;;;;5.15;0.82;;;;;;;;;;10334235;28;20030;-48
2022/09/09 15:33:27;;;;;;;2.38;1.20;;;;;;;;;;10366532;28;20026;-48
2022/09/09 15:38:31;;;;;;;6.05;1.42;;;;;;;;;;10366435;28;20500;-46
2022/09/09 15:43:31;;;;;;;2.22;1.10;;;;;;;;;;10366469;28;20037;-48
2022/09/09 15:48:34;;;;;;;2.33;1.03;;;;;;;;;;10359883;28;20030;-47
2022/09/09 15:53:35;;;;;;;6.28;1.30;;;;;;;;;;10365655;28;20030;-55
2022/09/09 15:58:36;;;;;;;6.33;1.37;;;;;;;;;;10366357;28;20100;-46
2022/09/09 16:03:38;;;;;;;12.90;1.38;;;;;;;;;;10349486;28;20029;-63
2022/09/09 16:08:44;;;;;;;2.35;1.48;;;;;;;;;;10371010;28;20528;-68
2022/09/09 16:13:46;;;;;;;6.00;1.88;;;;;;;;;;10365139;28;20421;-43
2022/09/09 16:18:52;;;;;;;4.80;2.17;;;;;;;;;;10345349;28;20391;-45
2022/09/09 16:23:53;;;;;;;6.13;1.77;;;;;;;;;;10357426;28;20030;-45
2022/09/09 16:28:54;;;;;;;3.60;1.92;;;;;;;;;;10371916;28;20371;-48
2022/09/09 16:33:54;;;;;;;4.55;1.98;;;;;;;;;;10357705;28;20037;-45
2022/09/09 16:38:57;;;;;;;4.45;2.28;;;;;;;;;;10344137;28;20038;-46
2022/09/09 16:43:59;;;;;;;4.60;2.42;;;;;;;;;;10352310;28;20057;-48
2022/09/09 16:49:01;;;;;;;4.50;2.13;;;;;;;;;;10370366;28;20052;-45
2022/09/09 16:54:04;;;;;;;5.90;2.00;;;;;;;;;;10359765;28;20026;-45
2022/09/09 16:59:08;;;;;;;6.13;2.20;;;;;;;;;;10360180;28;20531;-48
2022/09/09 17:04:16;;;;;;;3.83;2.13;;;;;;;;;;10356394;28;20057;-46
2022/09/09 17:09:17;;;;;;;5.28;2.13;;;;;;;;;;10369059;28;20096;-47
2022/09/09 17:14:20;;;;;;;7.88;2.65;;;;;;;;;;10366322;28;20096;-46
2022/09/09 17:19:20;;;;;;;2.78;1.88;;;;;;;;;;10370401;28;20029;-45
2022/09/09 17:24:21;;;;;;;5.33;2.03;;;;;;;;;;10368758;28;20099;-45
2022/09/09 17:29:22;;;;;;;8.93;2.47;;;;;;;;;;10367188;28;20021;-46
2022/09/09 17:34:23;;;;;;;5.47;1.93;;;;;;;;;;10361363;28;20120;-45
2022/09/09 17:39:23;;;;;;;2.20;1.70;;;;;;;;;;10365732;28;20825;-46
2022/09/09 17:44:23;;;;;;;7.13;2.30;;;;;;;;;;10368219;28;20052;-46
2022/09/09 17:49:24;;;;;;;3.75;2.00;;;;;;;;;;10368672;28;20036;-49
2022/09/09 17:54:24;;;;;;;2.87;1.73;;;;;;;;;;10369151;28;20397;-49
2022/09/09 17:59:25;;;;;;;1.57;1.47;;;;;;;;;;10368485;28;20476;-46
2022/09/09 18:04:25;;;;;;;3.25;1.92;;;;;;;;;;10368351;28;20034;-48
2022/09/09 18:09:26;;;;;;;3.33;2.10;;;;;;;;;;10366181;28;20060;-45
2022/09/09 18:14:29;;;;;;;17.85;2.88;;;;;;;;;;10361713;28;20034;-46
2022/09/09 18:19:32;;;;;;;5.95;2.08;;;;;;;;;;10368082;28;20049;-49
2022/09/09 18:24:35;;;;;;;4.40;1.90;;;;;;;;;;10365039;28;20038;-46
2022/09/09 18:29:35;;;;;;;8.73;2.05;;;;;;;;;;10360217;28;20056;-46
2022/09/09 18:34:35;;;;;;;6.03;1.80;;;;;;;;;;10336548;28;20484;-46
2022/09/09 18:39:36;;;;;;;9.13;2.00;;;;;;;;;;10350550;28;20524;-46
2022/09/09 18:44:37;;;;;;;8.30;3.33;;;;;;;;;;10356927;28;20366;-46
2022/09/09 18:49:37;;;;;;;5.72;3.13;;;;;;;;;;10364582;28;20038;-46
2022/09/09 18:54:42;;;;;;;8.35;2.40;;;;;;;;;;10360295;28;20382;-46
2022/09/09 18:59:43;;;;;;;5.85;2.28;;;;;;;;;;10366581;28;20454;-46
2022/09/09 19:04:44;;;;;;;8.77;2.38;;;;;;;;;;10357597;28;20038;-47
2022/09/09 19:09:45;;;;;;;6.63;2.10;;;;;;;;;;10354166;28;20053;-47
2022/09/09 19:14:45;;;;;;;3.30;2.17;;;;;;;;;;10364787;28;20030;-49
2022/09/09 19:19:46;;;;;;;3.00;1.75;;;;;;;;;;10365024;28;20026;-47
2022/09/09 19:24:47;;;;;;;2.47;1.65;;;;;;;;;;10343658;28;20432;-47
2022/09/09 19:29:48;;;;;;;3.63;1.60;;;;;;;;;;10346911;28;20037;-47
2022/09/09 19:34:49;;;;;;;9.27;1.70;;;;;;;;;;10363111;28;20018;-49
2022/09/09 19:39:50;;;;;;;5.25;2.00;;;;;;;;;;10354399;28;20026;-47
2022/09/09 19:44:51;;;;;;;4.10;2.20;;;;;;;;;;10347755;28;20109;-47
2022/09/09 19:49:51;;;;;;;5.07;1.80;;;;;;;;;;10349961;28;20492;-46
2022/09/09 19:54:52;;;;;;;3.33;2.00;;;;;;;;;;10360784;28;20494;-65
2022/09/09 19:59:52;;;;;;;3.65;1.83;;;;;;;;;;10369795;28;20029;-63
2022/09/09 20:04:54;;;;;;;4.13;1.90;;;;;;;;;;10364039;28;20402;-56
2022/09/09 20:09:54;;;;;;;4.63;2.40;;;;;;;;;;10371344;28;20513;-60
2022/09/09 20:14:54;;;;;;;3.93;2.23;;;;;;;;;;10368818;28;20036;-53
2022/09/09 20:19:55;;;;;;;7.57;2.60;;;;;;;;;;10348713;28;20026;-54
2022/09/09 20:24:55;;;;;;;9.35;2.30;;;;;;;;;;10366940;28;20478;-57
2022/09/09 20:29:56;;;;;;;4.83;2.53;;;;;;;;;;10358597;28;20030;-62
2022/09/09 20:34:57;;;;;;;4.50;2.28;;;;;;;;;;10339126;28;20033;-59
2022/09/09 20:39:58;;;;;;;2.20;2.00;;;;;;;;;;10349056;28;20032;-55
2022/09/09 20:44:59;;;;;;;5.70;2.22;;;;;;;;;;10337463;28;20058;-54
2022/09/09 20:49:59;;;;;;;4.73;1.80;;;;;;;;;;10342086;28;20114;-64
2022/09/09 20:55:00;;;;;;;3.93;2.57;;;;;;;;;;10334529;28;21029;-63
2022/09/09 21:00:02;;;;;;;4.83;2.53;;;;;;;;;;10335258;28;20080;-54
2022/09/09 21:05:03;;;;;;;5.07;2.10;;;;;;;;;;10339771;28;20531;-64
2022/09/09 21:10:04;;;;;;;3.25;1.63;;;;;;;;;;10335432;28;20073;-49
2022/09/09 21:15:05;;;;;;;3.45;1.30;;;;;;;;;;10331963;28;20034;-53
2022/09/09 21:20:06;;;;;;;3.25;1.10;;;;;;;;;;10333442;28;20111;-57
2022/09/09 21:25:07;;;;;;;3.28;0.90;;;;;;;;;;10364107;28;20492;-58
2022/09/09 21:30:08;;;;;;;4.43;1.20;;;;;;;;;;10370824;28;20037;-71
2022/09/09 21:35:10;;;;;;;2.10;1.40;;;;;;;;;;10370363;28;20033;-46
2022/09/09 21:40:11;;;;;;;4.07;1.52;;;;;;;;;;10364041;28;20109;-45
2022/09/09 21:45:13;;;;;;;2.63;1.20;;;;;;;;;;10338847;28;20511;-45
2022/09/09 21:50:14;;;;;;;3.75;1.25;;;;;;;;;;10338949;28;20484;-46
2022/09/09 21:55:15;;;;;;;3.72;1.15;;;;;;;;;;10330252;28;20026;-46
2022/09/09 22:00:16;;;;;;;5.22;1.30;;;;;;;;;;10330512;28;20019;-48
2022/09/09 22:05:17;;;;;;;2.55;1.10;;;;;;;;;;10346743;28;20088;-47
2022/09/09 22:10:19;;;;;;;2.10;1.03;;;;;;;;;;10356045;28;20125;-70
2022/09/09 22:15:20;;;;;;;2.25;1.08;;;;;;;;;;10363900;28;20828;-74
2022/09/09 22:20:20;;;;;;;3.38;1.20;;;;;;;;;;10344893;28;20036;-66
2022/09/09 22:25:20;;;;;;;3.60;1.23;;;;;;;;;;10368481;28;20080;-72
2022/09/09 22:30:21;;;;;;;1.30;1.00;;;;;;;;;;10368133;28;20025;-70
2022/09/09 22:35:21;;;;;;;2.63;1.03;;;;;;;;;;10362734;28;20036;-74
2022/09/09 22:40:22;;;;;;;9.15;1.33;;;;;;;;;;10363156;28;20483;-63
2022/09/09 22:45:22;;;;;;;13.35;1.30;;;;;;;;;;10366414;28;20239;-63
2022/09/09 22:50:24;;;;;;;4.00;1.00;;;;;;;;;;10367680;28;20046;-64
2022/09/09 22:55:26;;;;;;;6.22;1.10;;;;;;;;;;10367220;28;20041;-64
2022/09/09 23:00:27;;;;;;;3.17;1.13;;;;;;;;;;10365212;28;20029;-60
2022/09/09 23:05:29;;;;;;;5.75;1.45;;;;;;;;;;10351010;28;20034;-63
2022/09/09 23:10:31;;;;;;;5.85;1.13;;;;;;;;;;10342505;28;20073;-63
2022/09/09 23:15:32;;;;;;;1.25;1.02;;;;;;;;;;10349889;28;20088;-62
2022/09/09 23:20:32;;;;;;;2.30;0.95;;;;;;;;;;10362458;28;20021;-62
2022/09/09 23:25:37;;;;;;;6.78;1.02;;;;;;;;;;10366910;28;20061;-60
2022/09/09 23:30:40;;;;;;;2.40;1.00;;;;;;;;;;10363665;28;20026;-62
2022/09/09 23:35:41;;;;;;;4.93;1.10;;;;;;;;;;10370390;28;20033;-61
2022/09/09 23:40:45;;;;;;;11.13;1.17;;;;;;;;;;10350952;28;20048;-62
2022/09/09 23:45:46;;;;;;;9.77;1.50;;;;;;;;;;10371654;28;20053;-62
2022/09/09 23:50:49;;;;;;;5.63;1.40;;;;;;;;;;10360694;28;20463;-62
2022/09/09 23:55:49;;;;;;;7.88;1.80;;;;;;;;;;10373604;28;20044;-62
